createdAt,value
2023-01-06T00:00:27.920Z,78.15
2023-01-06T00:01:29.629Z,78.22
2023-01-06T00:02:31.283Z,78.26
2023-01-06T00:03:33.232Z,78.34
2023-01-06T00:04:34.868Z,78.32
2023-01-06T00:05:36.726Z,78.28
2023-01-06T00:06:38.417Z,78.16
2023-01-06T00:07:40.296Z,78.50
2023-01-06T00:08:41.958Z,78.24
2023-01-06T00:09:43.561Z,78.48
2023-01-06T00:10:45.171Z,78.53
2023-01-06T00:11:46.759Z,78.55
2023-01-06T00:12:48.817Z,78.53
2023-01-06T00:13:50.492Z,78.69
2023-01-06T00:14:52.649Z,78.50
2023-01-06T00:15:55.545Z,78.68
2023-01-06T00:16:57.270Z,78.57
2023-01-06T00:17:58.989Z,78.68
2023-01-06T00:19:00.651Z,78.84
2023-01-06T00:20:02.933Z,78.83
2023-01-06T00:21:04.677Z,78.82
2023-01-06T00:22:06.337Z,78.77
2023-01-06T00:23:07.982Z,78.87
2023-01-06T00:24:09.894Z,78.87
2023-01-06T00:25:11.663Z,78.86
2023-01-06T00:26:13.281Z,78.80
2023-01-06T00:27:14.954Z,78.97
2023-01-06T00:28:16.556Z,78.92
2023-01-06T00:29:18.163Z,78.93
2023-01-06T00:30:19.785Z,79.10
2023-01-06T00:31:21.502Z,79.07
2023-01-06T00:32:23.190Z,79.01
2023-01-06T00:33:24.919Z,79.28
2023-01-06T00:34:26.806Z,79.15
2023-01-06T00:35:28.443Z,79.08
2023-01-06T00:36:30.169Z,79.12
2023-01-06T00:37:31.836Z,79.06
2023-01-06T00:38:36.338Z,79.17
2023-01-06T00:39:37.988Z,79.24
2023-01-06T00:40:39.592Z,79.26
2023-01-06T00:42:00.101Z,79.20
2023-01-06T00:43:01.714Z,79.16
2023-01-06T00:44:03.368Z,79.23
2023-01-06T00:45:05.245Z,79.42
2023-01-06T00:46:06.908Z,79.53
2023-01-06T00:47:10.256Z,79.51
2023-01-06T00:48:12.122Z,79.36
2023-01-06T00:49:13.752Z,79.41
2023-01-06T00:50:15.377Z,79.36
2023-01-06T00:51:16.973Z,79.28
2023-01-06T00:52:18.631Z,79.29
2023-01-06T00:53:20.289Z,79.27
2023-01-06T00:54:21.920Z,79.32
2023-01-06T00:55:23.527Z,79.33
2023-01-06T00:56:25.125Z,79.35
2023-01-06T00:57:26.736Z,79.38
2023-01-06T00:58:31.915Z,79.34
2023-01-06T00:59:33.587Z,79.45
2023-01-06T01:00:35.203Z,79.33
2023-01-06T01:01:37.078Z,79.39
2023-01-06T01:02:38.911Z,79.40
2023-01-06T01:03:40.590Z,79.37
2023-01-06T01:04:42.188Z,79.46
2023-01-06T01:05:43.789Z,79.33
2023-01-06T01:06:46.435Z,79.33
2023-01-06T01:07:48.142Z,79.34
2023-01-06T01:08:54.053Z,79.39
2023-01-06T01:09:55.719Z,79.41
2023-01-06T01:11:04.091Z,79.51
2023-01-06T01:12:14.748Z,79.77
2023-01-06T01:13:16.333Z,79.77
2023-01-06T01:14:19.088Z,79.58
2023-01-06T01:15:21.161Z,79.66
2023-01-06T01:16:22.775Z,79.34
2023-01-06T01:17:26.237Z,79.36
2023-01-06T01:18:27.869Z,79.38
2023-01-06T01:19:29.839Z,79.52
2023-01-06T01:20:31.443Z,79.42
2023-01-06T01:21:33.195Z,79.60
2023-01-06T01:22:34.806Z,79.54
2023-01-06T01:23:36.388Z,79.48
2023-01-06T01:24:38.265Z,79.52
2023-01-06T01:25:40.776Z,79.51
2023-01-06T01:26:42.516Z,79.64
2023-01-06T01:27:44.156Z,79.63
2023-01-06T01:28:45.867Z,79.69
2023-01-06T01:29:47.531Z,79.70
2023-01-06T01:30:49.192Z,79.66
2023-01-06T01:31:50.917Z,79.62
2023-01-06T01:32:52.510Z,79.85
2023-01-06T01:33:54.139Z,79.69
2023-01-06T01:34:55.756Z,79.87
2023-01-06T01:35:57.404Z,79.84
2023-01-06T01:36:59.059Z,79.87
2023-01-06T01:38:00.735Z,79.93
2023-01-06T01:39:02.389Z,79.92
2023-01-06T01:40:04.419Z,79.89
2023-01-06T01:41:06.271Z,79.81
2023-01-06T01:42:13.525Z,79.72
2023-01-06T01:43:15.328Z,79.79
2023-01-06T01:45:11.003Z,79.75
2023-01-06T01:46:13.006Z,79.73
2023-01-06T01:47:17.338Z,79.76
2023-01-06T01:48:30.146Z,79.82
2023-01-06T01:49:32.283Z,79.73
2023-01-06T01:50:37.784Z,79.97
2023-01-06T01:51:41.763Z,79.96
2023-01-06T01:52:43.541Z,79.99
2023-01-06T01:53:48.743Z,80.03
2023-01-06T01:54:50.390Z,80.25
2023-01-06T01:55:53.108Z,80.10
2023-01-06T01:57:03.855Z,79.98
2023-01-06T01:58:14.093Z,80.14
2023-01-06T01:59:21.147Z,80.17
2023-01-06T02:00:22.876Z,80.06
2023-01-06T02:01:24.511Z,80.19
2023-01-06T02:02:26.313Z,80.22
2023-01-06T02:03:27.958Z,80.30
2023-01-06T02:04:29.768Z,80.26
2023-01-06T02:05:31.348Z,80.22
2023-01-06T02:06:32.939Z,80.35
2023-01-06T02:07:34.549Z,80.04
2023-01-06T02:08:41.900Z,80.02
2023-01-06T02:10:08.316Z,80.08
2023-01-06T02:11:09.995Z,80.16
2023-01-06T02:12:11.651Z,80.10
2023-01-06T02:13:13.241Z,80.11
2023-01-06T02:14:16.448Z,80.27
2023-01-06T02:15:25.248Z,80.11
2023-01-06T02:16:36.036Z,80.20
2023-01-06T02:18:08.184Z,80.19
2023-01-06T02:19:47.367Z,80.19
2023-01-06T02:21:04.514Z,80.34
2023-01-06T02:22:20.198Z,80.40
2023-01-06T02:23:35.726Z,80.24
2023-01-06T02:25:04.887Z,80.16
2023-01-06T02:26:18.376Z,79.97
2023-01-06T02:27:30.206Z,80.06
2023-01-06T02:28:43.474Z,80.21
2023-01-06T02:29:48.003Z,80.25
2023-01-06T02:31:20.800Z,80.18
2023-01-06T02:32:44.118Z,80.44
2023-01-06T02:33:57.052Z,80.36
2023-01-06T02:35:32.373Z,80.34
2023-01-06T02:36:40.365Z,80.41
2023-01-06T02:38:12.140Z,80.53
2023-01-06T02:39:22.800Z,80.43
2023-01-06T02:40:42.729Z,80.65
2023-01-06T02:41:49.353Z,80.66
2023-01-06T02:43:08.745Z,80.44
2023-01-06T02:44:17.952Z,80.47
2023-01-06T02:45:37.116Z,80.46
2023-01-06T02:46:44.610Z,80.41
2023-01-06T02:48:03.579Z,80.45
2023-01-06T02:49:23.975Z,80.27
2023-01-06T02:50:45.788Z,80.30
2023-01-06T02:51:51.801Z,80.25
2023-01-06T02:53:05.593Z,80.21
2023-01-06T02:54:13.268Z,80.06
2023-01-06T02:55:35.589Z,79.97
2023-01-06T02:56:39.961Z,79.98
2023-01-06T02:57:51.865Z,80.12
2023-01-06T02:58:55.409Z,79.94
2023-01-06T03:00:12.920Z,79.87
2023-01-06T03:01:24.208Z,80.06
2023-01-06T03:02:26.034Z,79.67
2023-01-06T03:03:29.352Z,79.79
2023-01-06T03:04:35.104Z,79.83
2023-01-06T03:05:36.760Z,79.61
2023-01-06T03:06:44.782Z,79.47
2023-01-06T03:07:46.399Z,79.63
2023-01-06T03:08:48.843Z,79.35
2023-01-06T03:09:51.224Z,79.44
2023-01-06T03:10:52.920Z,79.31
2023-01-06T03:11:54.514Z,79.33
2023-01-06T03:13:00.849Z,79.31
2023-01-06T03:14:06.547Z,79.19
2023-01-06T03:15:08.684Z,79.23
2023-01-06T03:16:10.451Z,79.30
2023-01-06T03:17:12.085Z,79.53
2023-01-06T03:18:13.691Z,79.31
2023-01-06T03:19:15.324Z,79.29
2023-01-06T03:20:16.956Z,79.13
2023-01-06T03:21:21.040Z,79.02
2023-01-06T03:22:23.543Z,79.20
2023-01-06T03:23:25.165Z,79.25
2023-01-06T03:24:26.749Z,79.06
2023-01-06T03:25:28.330Z,78.99
2023-01-06T03:26:30.028Z,78.89
2023-01-06T03:27:31.627Z,78.80
2023-01-06T03:28:33.231Z,78.99
2023-01-06T03:29:34.997Z,78.87
2023-01-06T03:31:28.746Z,78.33
2023-01-06T03:32:46.487Z,78.56
2023-01-06T03:34:18.068Z,78.68
2023-01-06T03:35:22.533Z,78.44
2023-01-06T03:36:35.989Z,78.41
2023-01-06T03:37:40.608Z,78.62
2023-01-06T03:38:53.061Z,78.77
2023-01-06T03:40:16.563Z,78.75
2023-01-06T03:42:06.692Z,78.45
2023-01-06T03:43:21.963Z,78.66
2023-01-06T03:44:34.857Z,78.52
2023-01-06T03:45:44.179Z,78.27
2023-01-06T03:46:54.590Z,78.49
2023-01-06T03:48:10.721Z,78.65
2023-01-06T03:49:30.053Z,78.73
2023-01-06T03:50:38.824Z,78.80
2023-01-06T03:52:01.511Z,78.80
2023-01-06T03:53:26.762Z,78.68
2023-01-06T03:54:37.537Z,78.83
2023-01-06T03:55:39.152Z,78.59
2023-01-06T03:56:45.722Z,78.67
2023-01-06T03:57:49.469Z,78.83
2023-01-06T03:58:53.555Z,78.96
2023-01-06T03:59:57.416Z,79.14
2023-01-06T04:00:59.062Z,78.99
2023-01-06T04:02:00.676Z,78.94
2023-01-06T04:03:02.454Z,78.87
2023-01-06T04:04:04.160Z,78.87
2023-01-06T04:05:12.539Z,78.58
2023-01-06T04:06:14.189Z,78.56
2023-01-06T04:07:15.811Z,78.71
2023-01-06T04:08:17.494Z,78.63
2023-01-06T04:09:19.100Z,78.57
2023-01-06T04:10:21.528Z,78.51
2023-01-06T04:11:41.761Z,78.46
2023-01-06T04:12:43.480Z,78.61
2023-01-06T04:13:45.085Z,78.68
2023-01-06T04:14:46.686Z,78.78
2023-01-06T04:15:48.339Z,78.82
2023-01-06T04:16:50.010Z,78.95
2023-01-06T04:17:51.743Z,78.97
2023-01-06T04:18:53.377Z,79.04
2023-01-06T04:19:54.989Z,79.09
2023-01-06T04:20:56.576Z,79.06
2023-01-06T04:21:58.215Z,79.15
2023-01-06T04:22:59.889Z,79.37
2023-01-06T04:24:01.520Z,79.33
2023-01-06T04:25:03.222Z,79.47
2023-01-06T04:26:05.037Z,79.42
2023-01-06T04:27:06.761Z,79.49
2023-01-06T04:28:08.368Z,79.51
2023-01-06T04:29:10.018Z,79.63
2023-01-06T04:30:12.135Z,79.71
2023-01-06T04:31:13.810Z,79.76
2023-01-06T04:32:15.454Z,79.78
2023-01-06T04:33:17.124Z,79.85
2023-01-06T04:34:18.708Z,79.77
2023-01-06T04:35:20.299Z,79.81
2023-01-06T04:36:21.997Z,79.80
2023-01-06T04:37:23.632Z,79.62
2023-01-06T04:38:25.327Z,79.63
2023-01-06T04:39:26.937Z,79.71
2023-01-06T04:40:28.591Z,79.58
2023-01-06T04:41:32.054Z,79.72
2023-01-06T04:42:53.853Z,79.75
2023-01-06T04:43:57.923Z,79.75
2023-01-06T04:44:59.713Z,79.80
2023-01-06T04:46:01.351Z,79.62
2023-01-06T04:47:03.049Z,79.70
2023-01-06T04:48:05.126Z,79.82
2023-01-06T04:49:06.901Z,79.95
2023-01-06T04:50:08.640Z,80.05
2023-01-06T04:51:10.510Z,80.03
2023-01-06T04:52:12.173Z,79.98
2023-01-06T04:53:13.805Z,80.15
2023-01-06T04:54:15.461Z,80.20
2023-01-06T04:55:17.220Z,80.26
2023-01-06T04:56:19.061Z,80.28
2023-01-06T04:57:20.640Z,80.40
2023-01-06T04:58:22.243Z,80.39
2023-01-06T04:59:23.943Z,80.56
2023-01-06T05:00:25.590Z,80.39
2023-01-06T05:01:27.461Z,80.61
2023-01-06T05:02:29.174Z,80.79
2023-01-06T05:03:30.935Z,80.77
2023-01-06T05:04:43.406Z,81.02
2023-01-06T05:05:48.827Z,81.09
2023-01-06T05:06:50.464Z,81.25
2023-01-06T05:07:55.110Z,81.29
2023-01-06T05:08:56.699Z,81.28
2023-01-06T05:09:58.382Z,81.18
2023-01-06T05:11:10.728Z,81.18
2023-01-06T05:12:12.349Z,81.23
2023-01-06T05:13:13.959Z,81.25
2023-01-06T05:14:15.563Z,81.25
2023-01-06T05:15:17.358Z,81.36
2023-01-06T05:16:28.704Z,81.50
2023-01-06T05:17:30.410Z,81.54
2023-01-06T05:18:32.013Z,81.47
2023-01-06T05:19:33.638Z,81.60
2023-01-06T05:20:35.238Z,81.63
2023-01-06T05:21:36.874Z,81.70
2023-01-06T05:22:38.570Z,81.76
2023-01-06T05:23:40.468Z,81.86
2023-01-06T05:24:42.166Z,81.75
2023-01-06T05:25:43.774Z,81.74
2023-01-06T05:26:45.391Z,81.77
2023-01-06T05:27:47.089Z,81.89
2023-01-06T05:28:48.698Z,81.87
2023-01-06T05:29:50.301Z,81.87
2023-01-06T05:30:51.921Z,81.82
2023-01-06T05:31:53.597Z,81.74
2023-01-06T05:32:55.273Z,81.80
2023-01-06T05:33:56.865Z,81.75
2023-01-06T05:34:58.466Z,81.77
2023-01-06T05:36:00.561Z,81.70
2023-01-06T05:37:02.154Z,81.67
2023-01-06T05:38:03.877Z,81.56
2023-01-06T05:39:05.493Z,81.59
2023-01-06T05:40:07.631Z,81.48
2023-01-06T05:41:09.294Z,81.55
2023-01-06T05:42:10.901Z,81.46
2023-01-06T05:43:12.635Z,81.36
2023-01-06T05:44:14.228Z,81.26
2023-01-06T05:45:15.939Z,81.28
2023-01-06T05:46:17.579Z,81.23
2023-01-06T05:47:19.202Z,81.18
2023-01-06T05:48:22.058Z,81.12
2023-01-06T05:49:24.077Z,81.00
2023-01-06T05:50:25.674Z,81.10
2023-01-06T05:51:27.263Z,81.13
2023-01-06T05:52:28.869Z,81.04
2023-01-06T05:53:34.765Z,81.08
2023-01-06T05:54:36.530Z,81.12
2023-01-06T05:55:38.135Z,81.27
2023-01-06T05:56:39.772Z,81.22
2023-01-06T05:57:41.386Z,81.20
2023-01-06T05:58:47.436Z,81.29
2023-01-06T05:59:49.103Z,81.25
2023-01-06T06:00:50.668Z,81.29
2023-01-06T06:01:52.417Z,81.37
2023-01-06T06:02:54.031Z,81.41
2023-01-06T06:03:55.919Z,81.37
2023-01-06T06:04:57.653Z,81.22
2023-01-06T06:06:03.693Z,81.33
2023-01-06T06:07:05.411Z,81.37
2023-01-06T06:08:09.251Z,81.48
2023-01-06T06:09:11.053Z,81.50
2023-01-06T06:10:12.813Z,81.75
2023-01-06T06:11:15.607Z,81.76
2023-01-06T06:12:17.209Z,82.00
2023-01-06T06:13:18.838Z,82.07
2023-01-06T06:14:20.452Z,82.08
2023-01-06T06:15:22.073Z,82.11
2023-01-06T06:16:25.337Z,82.19
2023-01-06T06:17:26.977Z,82.25
2023-01-06T06:18:28.586Z,82.24
2023-01-06T06:19:30.219Z,82.19
2023-01-06T06:20:31.905Z,82.26
2023-01-06T06:21:33.515Z,82.40
2023-01-06T06:22:35.148Z,82.27
2023-01-06T06:23:36.792Z,82.33
2023-01-06T06:24:38.413Z,82.35
2023-01-06T06:25:40.071Z,82.28
2023-01-06T06:26:41.722Z,82.27
2023-01-06T06:27:43.370Z,82.24
2023-01-06T06:28:45.015Z,82.30
2023-01-06T06:29:46.636Z,82.31
2023-01-06T06:30:48.219Z,82.31
2023-01-06T06:31:49.926Z,82.25
2023-01-06T06:32:51.594Z,82.26
2023-01-06T06:33:54.351Z,82.35
2023-01-06T06:34:55.936Z,82.33
2023-01-06T06:35:58.423Z,82.29
2023-01-06T06:37:00.081Z,82.31
2023-01-06T06:38:01.743Z,82.23
2023-01-06T06:39:03.451Z,82.12
2023-01-06T06:40:05.659Z,82.18
2023-01-06T06:41:07.355Z,82.01
2023-01-06T06:42:09.168Z,81.88
2023-01-06T06:43:10.754Z,81.89
2023-01-06T06:44:12.411Z,81.84
2023-01-06T06:45:14.013Z,81.92
2023-01-06T06:46:16.111Z,81.85
2023-01-06T06:47:17.787Z,81.92
2023-01-06T06:48:19.599Z,81.96
2023-01-06T06:49:21.208Z,82.08
2023-01-06T06:50:22.880Z,82.26
2023-01-06T06:51:24.657Z,82.27
2023-01-06T06:52:26.281Z,82.36
2023-01-06T06:53:28.016Z,82.32
2023-01-06T06:54:29.717Z,82.31
2023-01-06T06:55:31.297Z,82.26
2023-01-06T06:56:32.887Z,82.23
2023-01-06T06:57:34.474Z,82.26
2023-01-06T06:58:36.733Z,82.25
2023-01-06T06:59:38.349Z,82.28
2023-01-06T07:00:39.932Z,82.19
2023-01-06T07:01:41.623Z,82.12
2023-01-06T07:02:43.241Z,82.40
2023-01-06T07:03:45.062Z,82.35
2023-01-06T07:04:46.777Z,82.30
2023-01-06T07:05:48.619Z,82.25
2023-01-06T07:06:50.287Z,82.25
2023-01-06T07:07:52.202Z,82.23
2023-01-06T07:08:53.988Z,82.21
2023-01-06T07:09:55.604Z,82.27
2023-01-06T07:10:57.252Z,82.38
2023-01-06T07:11:58.833Z,82.31
2023-01-06T07:13:00.519Z,82.29
2023-01-06T07:14:02.150Z,82.36
2023-01-06T07:15:04.033Z,82.36
2023-01-06T07:16:06.213Z,82.44
2023-01-06T07:17:07.908Z,82.43
2023-01-06T07:18:09.563Z,82.50
2023-01-06T07:19:11.284Z,82.47
2023-01-06T07:20:12.933Z,82.41
2023-01-06T07:21:14.551Z,82.32
2023-01-06T07:22:16.131Z,82.30
2023-01-06T07:23:17.873Z,82.32
2023-01-06T07:24:19.488Z,82.29
2023-01-06T07:25:21.305Z,82.35
2023-01-06T07:26:23.000Z,82.36
2023-01-06T07:27:24.623Z,82.31
2023-01-06T07:28:26.749Z,82.26
2023-01-06T07:29:28.383Z,82.22
2023-01-06T07:30:30.052Z,82.45
2023-01-06T07:31:31.899Z,82.47
2023-01-06T07:32:33.615Z,82.25
2023-01-06T07:33:35.291Z,82.19
2023-01-06T07:34:36.883Z,82.17
2023-01-06T07:35:38.547Z,82.01
2023-01-06T07:36:40.190Z,81.97
2023-01-06T07:37:42.061Z,81.82
2023-01-06T07:38:43.699Z,81.86
2023-01-06T07:39:45.374Z,81.86
2023-01-06T07:40:47.064Z,81.92
2023-01-06T07:41:48.676Z,81.73
2023-01-06T07:42:50.290Z,81.98
2023-01-06T07:43:51.896Z,82.04
2023-01-06T07:44:54.293Z,81.98
2023-01-06T07:45:55.966Z,82.07
2023-01-06T07:46:57.608Z,81.87
2023-01-06T07:48:00.541Z,81.90
2023-01-06T07:49:02.129Z,82.00
2023-01-06T07:50:04.522Z,82.22
2023-01-06T07:51:07.190Z,82.22
2023-01-06T07:52:09.192Z,82.22
2023-01-06T07:53:11.287Z,82.13
2023-01-06T07:54:12.888Z,82.28
2023-01-06T07:55:14.506Z,82.23
2023-01-06T07:56:16.187Z,82.16
2023-01-06T07:57:18.157Z,82.20
2023-01-06T07:58:20.119Z,82.26
2023-01-06T07:59:21.725Z,82.32
2023-01-06T08:00:23.473Z,82.34
2023-01-06T08:01:25.158Z,82.16
2023-01-06T08:02:26.896Z,82.35
2023-01-06T08:03:28.710Z,82.33
2023-01-06T08:04:30.318Z,82.34
2023-01-06T08:05:31.956Z,82.32
2023-01-06T08:06:33.621Z,82.12
2023-01-06T08:07:35.617Z,82.15
2023-01-06T08:08:38.104Z,81.94
2023-01-06T08:09:39.677Z,81.84
2023-01-06T08:10:41.929Z,81.90
2023-01-06T08:11:43.528Z,81.53
2023-01-06T08:12:45.215Z,81.45
2023-01-06T08:13:46.893Z,81.67
2023-01-06T08:14:48.533Z,81.60
2023-01-06T08:15:52.176Z,81.60
2023-01-06T08:16:53.908Z,81.51
2023-01-06T08:17:55.623Z,81.29
2023-01-06T08:18:57.358Z,81.28
2023-01-06T08:19:58.983Z,81.43
2023-01-06T08:21:04.174Z,81.58
2023-01-06T08:22:06.313Z,81.44
2023-01-06T08:23:07.914Z,81.37
2023-01-06T08:24:09.682Z,81.52
2023-01-06T08:25:11.321Z,81.58
2023-01-06T08:26:14.643Z,81.35
2023-01-06T08:27:16.662Z,81.34
2023-01-06T08:28:18.270Z,81.38
2023-01-06T08:29:19.944Z,81.49
2023-01-06T08:30:22.002Z,81.74
2023-01-06T08:31:23.788Z,81.72
2023-01-06T08:32:25.487Z,81.49
2023-01-06T08:33:27.180Z,81.51
2023-01-06T08:34:28.868Z,81.35
2023-01-06T08:35:30.481Z,81.13
2023-01-06T08:36:32.086Z,81.25
2023-01-06T08:37:33.736Z,81.24
2023-01-06T08:38:35.840Z,81.21
2023-01-06T08:39:37.525Z,81.42
2023-01-06T08:40:39.181Z,81.64
2023-01-06T08:41:40.886Z,81.38
2023-01-06T08:42:42.484Z,81.16
2023-01-06T08:43:45.880Z,81.29
2023-01-06T08:44:47.721Z,81.12
2023-01-06T08:45:49.438Z,80.87
2023-01-06T08:46:51.029Z,81.15
2023-01-06T08:47:52.705Z,81.24
2023-01-06T08:48:55.913Z,81.32
2023-01-06T08:49:57.590Z,81.37
2023-01-06T08:51:06.440Z,80.88
2023-01-06T08:52:08.046Z,80.97
2023-01-06T08:53:10.288Z,80.78
2023-01-06T08:54:11.966Z,80.47
2023-01-06T08:55:13.684Z,80.23
2023-01-06T08:56:17.078Z,79.76
2023-01-06T08:57:18.696Z,80.19
2023-01-06T08:58:20.354Z,80.16
2023-01-06T08:59:21.971Z,79.83
2023-01-06T09:00:23.657Z,79.55
2023-01-06T09:01:26.978Z,79.68
2023-01-06T09:02:31.484Z,79.54
2023-01-06T09:03:33.063Z,79.79
2023-01-06T09:04:34.723Z,79.25
2023-01-06T09:05:36.448Z,79.35
2023-01-06T09:06:38.202Z,79.12
2023-01-06T09:07:39.805Z,79.23
2023-01-06T09:08:41.457Z,79.02
2023-01-06T09:09:43.172Z,78.65
2023-01-06T09:10:44.757Z,78.69
2023-01-06T09:11:46.582Z,78.38
2023-01-06T09:12:48.552Z,78.42
2023-01-06T09:13:53.269Z,78.72
2023-01-06T09:14:54.969Z,78.80
2023-01-06T09:15:56.612Z,78.73
2023-01-06T09:16:58.228Z,78.85
2023-01-06T09:17:59.885Z,78.49
2023-01-06T09:19:01.523Z,78.86
2023-01-06T09:20:03.411Z,78.86
2023-01-06T09:21:05.612Z,78.66
2023-01-06T09:22:07.366Z,78.71
2023-01-06T09:23:08.954Z,78.63
2023-01-06T09:24:13.186Z,78.68
2023-01-06T09:25:14.955Z,78.49
2023-01-06T09:26:17.079Z,78.03
2023-01-06T09:27:18.686Z,77.72
2023-01-06T09:28:20.309Z,77.99
2023-01-06T09:29:21.927Z,77.79
2023-01-06T09:30:25.294Z,77.58
2023-01-06T09:31:27.075Z,77.48
2023-01-06T09:32:28.727Z,77.70
2023-01-06T09:33:30.503Z,78.17
2023-01-06T09:34:32.127Z,78.54
2023-01-06T09:35:34.007Z,78.58
2023-01-06T09:36:35.656Z,78.37
2023-01-06T09:37:37.256Z,78.15
2023-01-06T09:38:38.885Z,78.19
2023-01-06T09:39:40.565Z,78.65
2023-01-06T09:41:19.747Z,78.59
2023-01-06T09:42:28.430Z,78.87
2023-01-06T09:43:42.686Z,77.97
2023-01-06T09:44:47.194Z,77.22
2023-01-06T09:45:54.042Z,76.91
2023-01-06T09:46:55.679Z,76.99
2023-01-06T09:47:58.194Z,76.62
2023-01-06T09:49:46.594Z,76.29
2023-01-06T09:50:53.000Z,76.28
2023-01-06T09:52:01.175Z,76.11
2023-01-06T09:53:08.443Z,75.70
2023-01-06T09:54:15.702Z,75.43
2023-01-06T09:55:20.776Z,75.55
2023-01-06T09:56:22.896Z,75.64
2023-01-06T09:57:38.341Z,75.91
2023-01-06T09:58:44.008Z,75.59
2023-01-06T09:59:52.140Z,76.08
2023-01-06T10:00:54.878Z,76.05
2023-01-06T10:01:59.861Z,75.75
2023-01-06T10:03:01.632Z,75.57
2023-01-06T10:04:03.363Z,75.87
2023-01-06T10:05:29.441Z,75.73
2023-01-06T10:06:37.072Z,75.73
2023-01-06T10:07:44.469Z,75.79
2023-01-06T10:09:09.224Z,76.27
2023-01-06T10:10:29.449Z,75.62
2023-01-06T10:11:58.420Z,75.88
2023-01-06T10:13:05.901Z,75.84
2023-01-06T10:14:39.215Z,76.21
2023-01-06T10:15:46.188Z,75.60
2023-01-06T10:17:00.977Z,75.15
2023-01-06T10:18:40.860Z,75.99
2023-01-06T10:20:16.507Z,75.95
2023-01-06T10:21:29.438Z,75.65
2023-01-06T10:22:37.034Z,75.78
2023-01-06T10:24:01.335Z,75.93
2023-01-06T10:25:22.333Z,75.68
2023-01-06T10:26:30.003Z,75.70
2023-01-06T10:27:40.321Z,76.22
2023-01-06T10:28:43.493Z,76.42
2023-01-06T10:29:45.088Z,75.68
2023-01-06T10:30:50.502Z,74.94
2023-01-06T10:31:52.150Z,74.92
2023-01-06T10:32:53.832Z,75.15
2023-01-06T10:33:56.005Z,75.35
2023-01-06T10:34:57.671Z,75.79
2023-01-06T10:35:59.595Z,74.89
2023-01-06T10:37:23.628Z,74.58
2023-01-06T10:38:35.628Z,75.28
2023-01-06T10:39:38.045Z,74.65
2023-01-06T10:40:39.651Z,74.83
2023-01-06T10:42:22.387Z,74.95
2023-01-06T10:43:24.045Z,75.15
2023-01-06T10:44:25.631Z,75.27
2023-01-06T10:45:43.611Z,74.83
2023-01-06T10:46:45.541Z,74.51
2023-01-06T10:47:47.269Z,74.57
2023-01-06T10:48:49.481Z,74.61
2023-01-06T10:49:51.376Z,74.42
2023-01-06T10:50:53.094Z,74.65
2023-01-06T10:51:59.444Z,74.66
2023-01-06T10:53:01.055Z,74.83
2023-01-06T10:54:09.011Z,74.43
2023-01-06T10:55:22.635Z,74.56
2023-01-06T10:56:24.654Z,73.79
2023-01-06T10:57:29.702Z,74.25
2023-01-06T10:58:54.506Z,73.74
2023-01-06T11:00:12.373Z,74.01
2023-01-06T11:01:23.352Z,73.71
2023-01-06T11:02:25.129Z,74.00
2023-01-06T11:03:35.024Z,73.97
2023-01-06T11:04:37.283Z,73.86
2023-01-06T11:05:38.889Z,73.59
2023-01-06T11:06:50.290Z,73.67
2023-01-06T11:07:55.590Z,74.94
2023-01-06T11:08:57.383Z,74.90
2023-01-06T11:10:00.517Z,75.73
2023-01-06T11:11:02.173Z,74.81
2023-01-06T11:12:12.112Z,74.77
2023-01-06T11:13:34.607Z,77.59
2023-01-06T11:14:36.379Z,75.50
2023-01-06T11:15:41.523Z,75.54
2023-01-06T11:16:43.209Z,75.51
2023-01-06T11:17:45.801Z,75.66
2023-01-06T11:19:20.206Z,75.37
2023-01-06T11:20:21.789Z,75.38
2023-01-06T11:21:23.519Z,75.41
2023-01-06T11:22:35.920Z,74.85
2023-01-06T11:23:41.112Z,74.01
2023-01-06T11:24:52.915Z,74.35
2023-01-06T11:26:06.476Z,74.57
2023-01-06T11:27:17.233Z,74.20
2023-01-06T11:28:20.049Z,74.62
2023-01-06T11:29:34.854Z,74.23
2023-01-06T11:30:41.051Z,74.31
2023-01-06T11:31:42.762Z,73.99
2023-01-06T11:32:44.431Z,73.73
2023-01-06T11:34:02.951Z,74.17
2023-01-06T11:35:05.479Z,73.55
2023-01-06T11:36:11.538Z,73.54
2023-01-06T11:37:13.134Z,72.03
2023-01-06T11:38:15.720Z,71.50
2023-01-06T11:39:27.960Z,71.46
2023-01-06T11:40:32.145Z,71.31
2023-01-06T11:41:37.114Z,70.45
2023-01-06T11:43:43.516Z,70.58
2023-01-06T11:44:45.204Z,70.40
2023-01-06T11:45:48.451Z,69.87
2023-01-06T11:46:57.989Z,69.80
2023-01-06T11:47:59.834Z,70.26
2023-01-06T11:49:06.636Z,70.08
2023-01-06T11:50:17.610Z,69.12
2023-01-06T11:51:43.061Z,69.58
2023-01-06T11:52:44.701Z,69.29
2023-01-06T11:53:56.518Z,69.45
2023-01-06T11:55:02.249Z,69.05
2023-01-06T11:56:17.326Z,69.32
2023-01-06T11:57:33.023Z,69.01
2023-01-06T11:58:46.812Z,68.80
2023-01-06T12:00:24.444Z,68.63
2023-01-06T12:01:28.328Z,68.42
2023-01-06T12:02:45.117Z,69.43
2023-01-06T12:03:47.621Z,69.33
2023-01-06T12:04:51.806Z,68.95
2023-01-06T12:05:57.488Z,68.97
2023-01-06T12:07:03.579Z,68.97
2023-01-06T12:08:11.613Z,69.10
2023-01-06T12:09:18.089Z,69.16
2023-01-06T12:10:23.040Z,69.66
2023-01-06T12:11:47.226Z,69.75
2023-01-06T12:12:48.815Z,70.03
2023-01-06T12:14:10.705Z,69.91
2023-01-06T12:15:13.740Z,70.22
2023-01-06T12:16:23.714Z,69.70
2023-01-06T12:17:31.513Z,69.80
2023-01-06T12:18:33.935Z,69.77
2023-01-06T12:19:57.049Z,69.84
2023-01-06T12:20:58.815Z,69.35
2023-01-06T12:22:00.495Z,69.10
2023-01-06T12:23:13.914Z,69.59
2023-01-06T12:24:16.975Z,69.81
2023-01-06T12:25:38.247Z,70.14
2023-01-06T12:26:40.046Z,70.45
2023-01-06T12:27:48.260Z,69.92
2023-01-06T12:28:50.129Z,69.12
2023-01-06T12:29:51.859Z,69.44
2023-01-06T12:31:16.854Z,69.36
2023-01-06T12:32:20.461Z,68.94
2023-01-06T12:33:39.404Z,68.84
2023-01-06T12:34:42.683Z,68.73
2023-01-06T12:35:44.783Z,67.93
2023-01-06T12:36:50.416Z,69.31
2023-01-06T12:37:54.756Z,69.65
2023-01-06T12:38:57.754Z,70.02
2023-01-06T12:40:04.688Z,69.22
2023-01-06T12:41:14.223Z,69.19
2023-01-06T12:42:23.520Z,69.00
2023-01-06T12:43:25.718Z,68.78
2023-01-06T12:44:57.534Z,68.85
2023-01-06T12:46:08.424Z,68.84
2023-01-06T12:47:27.067Z,68.65
2023-01-06T12:48:37.672Z,68.71
2023-01-06T12:49:47.853Z,68.95
2023-01-06T12:50:51.842Z,69.51
2023-01-06T12:51:55.068Z,69.63
2023-01-06T12:53:22.446Z,69.65
2023-01-06T12:54:34.131Z,69.50
2023-01-06T12:56:06.657Z,69.47
2023-01-06T12:57:10.894Z,69.39
2023-01-06T12:58:18.958Z,69.29
2023-01-06T12:59:40.715Z,69.97
2023-01-06T13:01:05.426Z,69.64
2023-01-06T13:02:30.015Z,70.22
2023-01-06T13:03:59.116Z,70.11
2023-01-06T13:05:10.159Z,69.99
2023-01-06T13:06:30.604Z,70.15
2023-01-06T13:07:48.609Z,70.35
2023-01-06T13:08:56.224Z,70.72
2023-01-06T13:10:10.128Z,70.67
2023-01-06T13:11:42.746Z,70.90
2023-01-06T13:12:52.490Z,71.28
2023-01-06T13:14:05.670Z,71.04
2023-01-06T13:15:33.896Z,71.04
2023-01-06T13:16:57.126Z,70.84
2023-01-06T13:18:20.582Z,70.81
2023-01-06T13:19:35.817Z,69.75
2023-01-06T13:20:49.319Z,70.67
2023-01-06T13:21:51.042Z,70.94
2023-01-06T13:23:28.133Z,70.52
2023-01-06T13:25:06.233Z,69.80
2023-01-06T13:26:37.063Z,69.83
2023-01-06T13:27:45.789Z,70.19
2023-01-06T13:29:16.663Z,70.90
2023-01-06T13:30:40.853Z,70.08
2023-01-06T13:31:57.655Z,70.17
2023-01-06T13:33:36.414Z,71.00
2023-01-06T13:35:02.765Z,70.59
2023-01-06T13:36:07.138Z,70.92
2023-01-06T13:37:08.797Z,71.61
2023-01-06T13:38:38.611Z,71.12
2023-01-06T13:39:47.794Z,70.81
2023-01-06T13:40:51.221Z,71.02
2023-01-06T13:41:56.073Z,70.68
2023-01-06T13:43:01.015Z,70.67
2023-01-06T13:44:03.335Z,70.61
2023-01-06T13:45:05.814Z,70.53
2023-01-06T13:46:09.528Z,69.84
2023-01-06T13:47:13.333Z,69.96
2023-01-06T13:48:23.563Z,70.37
2023-01-06T13:49:25.174Z,70.17
2023-01-06T13:50:27.155Z,70.06
2023-01-06T13:51:31.894Z,70.09
2023-01-06T13:52:33.576Z,70.39
2023-01-06T13:53:42.333Z,70.74
2023-01-06T13:54:43.966Z,71.16
2023-01-06T13:55:45.601Z,70.85
2023-01-06T13:56:47.180Z,71.25
2023-01-06T13:57:48.957Z,71.11
2023-01-06T13:58:51.673Z,71.00
2023-01-06T14:00:15.270Z,70.85
2023-01-06T14:01:20.028Z,70.92
2023-01-06T14:02:33.918Z,71.22
2023-01-06T14:03:39.971Z,71.24
2023-01-06T14:04:44.690Z,71.23
2023-01-06T14:05:46.285Z,71.07
2023-01-06T14:06:47.925Z,71.33
2023-01-06T14:07:56.108Z,71.77
2023-01-06T14:08:58.745Z,71.60
2023-01-06T14:10:00.397Z,71.84